createdAt,value
2022-10-03T00:01:30.523Z,7.13
2022-10-03T00:04:18.442Z,6.93
2022-10-03T00:07:10.183Z,8.27
2022-10-03T00:10:17.156Z,7.10
2022-10-03T00:12:54.598Z,5.30
2022-10-03T00:16:16.012Z,10.25
2022-10-03T00:18:48.785Z,8.63
2022-10-03T00:21:39.278Z,7.18
2022-10-03T00:24:40.124Z,6.10
2022-10-03T00:27:44.357Z,6.77
2022-10-03T00:30:26.385Z,5.83
2022-10-03T00:32:55.535Z,7.65
2022-10-03T00:36:00.770Z,5.78
2022-10-03T00:38:59.272Z,7.38
2022-10-03T00:45:51.052Z,6.95
2022-10-03T00:48:54.945Z,5.95
2022-10-03T00:51:46.350Z,6.80
2022-10-03T00:54:23.803Z,10.20
2022-10-03T00:57:05.343Z,5.07
2022-10-03T00:59:42.528Z,7.78
2022-10-03T01:06:35.069Z,6.47
2022-10-03T01:09:13.719Z,7.80
2022-10-03T01:12:21.080Z,6.37
2022-10-03T01:15:32.271Z,6.95
2022-10-03T01:18:19.582Z,7.53
2022-10-03T01:20:53.554Z,6.97
2022-10-03T01:23:43.873Z,5.95
2022-10-03T01:26:31.255Z,5.82
2022-10-03T01:29:23.159Z,7.47
2022-10-03T01:32:17.451Z,7.75
2022-10-03T01:39:04.368Z,8.83
2022-10-03T01:41:39.927Z,8.50
2022-10-03T01:44:27.875Z,8.98
2022-10-03T01:47:28.468Z,9.10
2022-10-03T01:50:15.012Z,6.68
2022-10-03T01:52:59.912Z,5.70
2022-10-03T01:55:31.875Z,6.90
2022-10-03T01:58:38.428Z,7.03
2022-10-03T02:01:27.377Z,6.68
2022-10-03T02:04:05.455Z,8.30
2022-10-03T02:07:01.671Z,8.65
2022-10-03T02:09:51.761Z,6.38
2022-10-03T02:12:23.974Z,6.13
2022-10-03T02:15:15.476Z,7.25
2022-10-03T02:17:48.806Z,6.60
2022-10-03T02:20:55.387Z,8.73
2022-10-03T02:23:29.253Z,8.20
2022-10-03T02:26:22.325Z,7.57
2022-10-03T02:29:45.790Z,7.85
2022-10-03T02:32:51.835Z,7.28
2022-10-03T02:35:56.140Z,5.97
2022-10-03T02:38:42.990Z,6.35
2022-10-03T02:41:26.467Z,7.20
2022-10-03T02:44:22.236Z,8.15
2022-10-03T02:47:03.331Z,6.50
2022-10-03T02:49:56.347Z,5.07
2022-10-03T02:53:02.224Z,6.10
2022-10-03T02:56:01.906Z,6.15
2022-10-03T02:58:40.401Z,6.32
2022-10-03T03:01:31.926Z,5.97
2022-10-03T03:04:38.314Z,6.60
2022-10-03T03:07:17.619Z,8.10
2022-10-03T03:10:24.536Z,6.38
2022-10-03T03:13:16.512Z,7.13
2022-10-03T03:16:36.598Z,7.35
2022-10-03T03:19:26.845Z,8.32
2022-10-03T03:22:17.403Z,9.13
2022-10-03T03:24:57.259Z,8.00
2022-10-03T03:28:03.763Z,7.13
2022-10-03T03:30:41.805Z,7.13
2022-10-03T03:33:28.925Z,8.90
2022-10-03T03:36:20.506Z,5.15
2022-10-03T03:39:18.833Z,8.18
2022-10-03T03:41:48.219Z,6.35
2022-10-03T03:44:55.290Z,6.70
2022-10-03T03:47:48.733Z,8.50
2022-10-03T03:50:49.420Z,7.95
2022-10-03T03:53:46.087Z,8.00
2022-10-03T03:56:43.630Z,8.98
2022-10-03T03:59:28.328Z,5.75
2022-10-03T04:02:23.573Z,10.27
2022-10-03T04:05:21.281Z,6.43
2022-10-03T04:08:15.981Z,9.38
2022-10-03T04:11:19.423Z,7.38
2022-10-03T04:14:20.473Z,8.15
2022-10-03T04:17:27.479Z,8.00
2022-10-03T04:20:32.491Z,7.37
2022-10-03T04:23:14.129Z,7.70
2022-10-03T04:25:46.041Z,8.98
2022-10-03T04:28:55.664Z,9.50
2022-10-03T04:31:34.137Z,9.27
2022-10-03T04:34:29.690Z,9.20
2022-10-03T04:37:31.845Z,10.43
2022-10-03T04:40:23.160Z,10.98
2022-10-03T04:42:59.358Z,9.85
2022-10-03T04:45:52.709Z,7.97
2022-10-03T04:48:45.120Z,9.50
2022-10-03T04:51:42.884Z,7.00
2022-10-03T04:54:49.215Z,7.45
2022-10-03T04:57:39.580Z,7.07
2022-10-03T05:00:27.149Z,7.70
2022-10-03T05:03:29.829Z,6.55
2022-10-03T05:06:29.798Z,6.93
2022-10-03T05:09:40.893Z,7.60
2022-10-03T05:12:29.385Z,7.25
2022-10-03T05:15:35.677Z,7.50
2022-10-03T05:18:24.610Z,9.23
2022-10-03T05:21:40.704Z,8.83
2022-10-03T05:24:47.366Z,6.85
2022-10-03T05:27:54.180Z,7.30
2022-10-03T05:30:46.451Z,7.53
2022-10-03T05:33:15.798Z,9.60
2022-10-03T05:36:30.952Z,8.00
2022-10-03T05:39:37.867Z,8.57
2022-10-03T05:42:27.357Z,7.78
2022-10-03T05:45:05.486Z,7.15
2022-10-03T05:48:17.737Z,7.50
2022-10-03T05:51:08.288Z,9.65
2022-10-03T05:53:55.445Z,9.60
2022-10-03T05:56:41.147Z,8.93
2022-10-03T05:59:46.881Z,7.55
2022-10-03T06:02:45.955Z,7.75
2022-10-03T06:05:36.117Z,7.47
2022-10-03T06:08:33.225Z,6.80
2022-10-03T06:11:39.882Z,9.98
2022-10-03T06:14:36.342Z,9.47
2022-10-03T06:17:33.280Z,7.32
2022-10-03T06:20:24.331Z,10.52
2022-10-03T06:23:24.208Z,6.53
2022-10-03T06:26:30.883Z,7.47
2022-10-03T06:29:32.688Z,7.55
2022-10-03T06:32:19.750Z,7.40
2022-10-03T06:35:06.802Z,7.90
2022-10-03T06:38:03.587Z,7.67
2022-10-03T06:41:10.491Z,7.40
2022-10-03T06:43:58.261Z,7.05
2022-10-03T06:46:39.173Z,7.47
2022-10-03T06:49:24.480Z,7.25
2022-10-03T06:52:05.988Z,7.55
2022-10-03T06:54:53.195Z,7.43
2022-10-03T06:58:03.288Z,10.05
2022-10-03T07:00:47.206Z,7.53
2022-10-03T07:03:53.308Z,8.32
2022-10-03T07:06:32.948Z,7.85
2022-10-03T07:09:23.022Z,9.40
2022-10-03T07:12:14.406Z,8.13
2022-10-03T07:14:53.949Z,8.60
2022-10-03T07:17:56.908Z,8.25
2022-10-03T07:20:34.727Z,7.90
2022-10-03T07:23:27.959Z,9.50
2022-10-03T07:26:24.584Z,9.65
2022-10-03T07:29:31.015Z,9.52
2022-10-03T07:32:20.945Z,10.63
2022-10-03T07:35:05.286Z,8.00
2022-10-03T07:38:13.812Z,11.73
2022-10-03T07:40:53.054Z,9.43
2022-10-03T07:43:37.114Z,17.75
2022-10-03T07:46:18.993Z,11.10
2022-10-03T07:48:56.807Z,11.60
2022-10-03T07:52:23.619Z,9.23
2022-10-03T07:55:11.347Z,9.40
2022-10-03T07:57:57.291Z,9.45
2022-10-03T08:00:48.828Z,10.88
2022-10-03T08:03:48.456Z,10.40
2022-10-03T08:06:27.614Z,9.88
2022-10-03T08:09:04.900Z,10.55
2022-10-03T08:11:52.886Z,14.20
2022-10-03T08:14:25.673Z,11.93
2022-10-03T08:17:31.682Z,10.50
2022-10-03T08:20:36.410Z,9.48
2022-10-03T08:23:25.191Z,10.73
2022-10-03T08:26:07.008Z,11.05
2022-10-03T08:28:53.948Z,9.40
2022-10-03T08:31:48.676Z,6.55
2022-10-03T08:34:50.519Z,10.10
2022-10-03T08:37:36.417Z,9.93
2022-10-03T08:40:30.855Z,10.80
2022-10-03T08:43:18.289Z,9.88
2022-10-03T08:46:02.013Z,9.25
2022-10-03T08:48:42.551Z,13.98
2022-10-03T08:51:30.597Z,8.45
2022-10-03T08:54:20.220Z,9.07
2022-10-03T08:56:59.025Z,7.25
2022-10-03T08:59:47.071Z,9.87
2022-10-03T09:03:13.731Z,7.95
2022-10-03T09:05:51.013Z,10.15
2022-10-03T09:08:22.587Z,7.50
2022-10-03T09:11:13.304Z,9.43
2022-10-03T09:14:06.687Z,7.82
2022-10-03T09:16:42.209Z,9.10
2022-10-03T09:19:32.560Z,6.90
2022-10-03T09:22:07.751Z,10.63
2022-10-03T09:24:56.169Z,11.90
2022-10-03T09:27:48.774Z,8.88
2022-10-03T09:30:32.642Z,10.23
2022-10-03T09:33:14.307Z,13.65
2022-10-03T09:35:58.278Z,8.98
2022-10-03T09:38:42.942Z,7.25
2022-10-03T09:41:24.890Z,7.80
2022-10-03T09:44:03.181Z,10.70
2022-10-03T09:47:11.588Z,7.60
2022-10-03T09:49:54.210Z,9.75
2022-10-03T09:52:40.968Z,9.15
2022-10-03T09:55:13.806Z,7.47
2022-10-03T09:58:07.798Z,10.10
2022-10-03T10:00:49.073Z,8.27
2022-10-03T10:03:50.233Z,8.55
2022-10-03T10:06:59.208Z,8.32
2022-10-03T10:09:53.907Z,9.20
2022-10-03T10:12:44.398Z,10.37
2022-10-03T10:15:31.894Z,9.15
2022-10-03T10:18:33.661Z,8.93
2022-10-03T10:21:11.868Z,8.38
2022-10-03T10:23:52.446Z,9.07
2022-10-03T10:26:41.698Z,10.70
2022-10-03T10:29:26.488Z,7.00
2022-10-03T10:32:12.194Z,9.05
2022-10-03T10:34:48.006Z,12.63
2022-10-03T10:37:46.956Z,8.00
2022-10-03T10:40:19.206Z,9.05
2022-10-03T10:43:15.508Z,13.93
2022-10-03T10:46:19.217Z,7.97
2022-10-03T10:49:22.967Z,10.07
2022-10-03T10:52:17.058Z,11.13
2022-10-03T10:55:30.356Z,10.35
2022-10-03T10:58:36.702Z,8.02
2022-10-03T11:01:38.046Z,9.85
2022-10-03T11:04:28.781Z,11.57
2022-10-03T11:07:50.708Z,20.38
2022-10-03T11:10:53.506Z,22.20
2022-10-03T11:13:46.829Z,21.48
2022-10-03T11:16:40.662Z,29.10
2022-10-03T11:19:45.748Z,29.25
2022-10-03T11:22:39.042Z,24.85
2022-10-03T11:25:38.288Z,20.43
2022-10-03T11:28:39.828Z,24.55
2022-10-03T11:31:35.551Z,41.70
2022-10-03T11:34:30.147Z,22.27
2022-10-03T11:37:14.287Z,18.80
2022-10-03T11:40:07.727Z,19.52
2022-10-03T11:42:59.834Z,15.02
2022-10-03T11:45:58.762Z,31.95
2022-10-03T11:49:09.207Z,21.73
2022-10-03T11:52:04.309Z,59.33
2022-10-03T11:54:43.385Z,51.42
2022-10-03T11:57:23.012Z,64.60
2022-10-03T12:00:11.174Z,30.38
2022-10-03T12:03:27.930Z,41.38
2022-10-03T12:06:46.550Z,56.35
2022-10-03T12:09:45.398Z,56.08
2022-10-03T12:12:53.109Z,23.13
2022-10-03T12:15:55.467Z,105.95
2022-10-03T12:18:45.622Z,69.95
2022-10-03T12:21:34.646Z,95.15
2022-10-03T12:24:25.229Z,58.88
2022-10-03T12:27:31.119Z,23.67
2022-10-03T12:30:04.732Z,13.63
2022-10-03T12:32:50.438Z,12.20
2022-10-03T12:36:24.150Z,8.98
2022-10-03T12:39:08.019Z,10.20
2022-10-03T12:41:52.567Z,11.95
2022-10-03T12:44:35.880Z,9.85
2022-10-03T12:47:50.943Z,9.32
2022-10-03T12:50:28.778Z,13.50
2022-10-03T12:53:21.143Z,20.08
2022-10-03T12:56:13.965Z,52.78
2022-10-03T12:58:56.568Z,38.42
2022-10-03T13:01:35.308Z,63.27
2022-10-03T13:04:26.526Z,68.85
2022-10-03T13:07:07.863Z,54.03
2022-10-03T13:09:49.248Z,43.15
2022-10-03T13:12:27.701Z,47.35
2022-10-03T13:15:33.739Z,36.72
2022-10-03T13:18:15.077Z,35.45
2022-10-03T13:20:54.691Z,43.30
2022-10-03T13:23:50.825Z,35.90
2022-10-03T13:26:45.131Z,29.65
2022-10-03T13:29:26.449Z,17.00
2022-10-03T13:32:17.827Z,16.83
2022-10-03T13:34:59.383Z,13.82
2022-10-03T13:38:03.739Z,9.30
2022-10-03T13:40:39.108Z,14.93
2022-10-03T13:43:18.168Z,19.92
2022-10-03T13:45:52.428Z,18.10
2022-10-03T13:48:26.920Z,18.95
2022-10-03T13:51:23.527Z,16.30
2022-10-03T13:54:01.152Z,15.25
2022-10-03T13:56:40.385Z,9.90
2022-10-03T13:59:27.882Z,12.35
2022-10-03T14:02:09.458Z,13.30
2022-10-03T14:05:00.115Z,14.20
2022-10-03T14:07:56.768Z,9.88
2022-10-03T14:11:00.550Z,10.05
2022-10-03T14:13:44.353Z,10.98
2022-10-03T14:16:33.324Z,14.63
2022-10-03T14:19:11.387Z,15.02
2022-10-03T14:21:52.804Z,22.98
2022-10-03T14:24:38.007Z,17.98
2022-10-03T14:27:32.541Z,13.25
2022-10-03T14:30:19.131Z,10.27
2022-10-03T14:33:14.054Z,10.10
2022-10-03T14:36:17.199Z,13.55
2022-10-03T14:39:12.249Z,10.23
2022-10-03T14:41:56.589Z,9.85
2022-10-03T14:44:40.296Z,9.30
2022-10-03T14:47:23.102Z,12.88
2022-10-03T14:49:59.742Z,11.02
2022-10-03T14:52:40.756Z,12.07
2022-10-03T14:55:19.002Z,9.50
2022-10-03T14:58:20.302Z,9.70
2022-10-03T15:00:56.456Z,10.65
2022-10-03T15:03:34.768Z,12.30
2022-10-03T15:06:31.688Z,11.57
2022-10-03T15:09:36.408Z,11.55
2022-10-03T15:12:25.547Z,11.30
2022-10-03T15:18:24.695Z,12.63
2022-10-03T15:21:17.969Z,10.80
2022-10-03T15:24:02.216Z,13.27
2022-10-03T15:26:38.387Z,11.65
2022-10-03T15:29:22.947Z,12.90
2022-10-03T15:31:57.897Z,12.48
2022-10-03T15:37:59.206Z,37.85
2022-10-03T15:41:17.979Z,19.63
2022-10-03T15:43:55.272Z,28.48
2022-10-03T15:46:50.699Z,74.93
2022-10-03T15:49:35.070Z,21.42
2022-10-03T15:52:22.159Z,28.13
2022-10-03T15:55:14.338Z,16.33
2022-10-03T15:57:51.121Z,12.48
2022-10-03T16:00:44.599Z,53.33
2022-10-03T16:03:33.461Z,32.30
2022-10-03T16:06:12.332Z,22.55
2022-10-03T16:09:09.148Z,12.90
2022-10-03T16:11:59.468Z,12.98
2022-10-03T16:14:33.591Z,16.60
2022-10-03T16:17:17.986Z,7.95
2022-10-03T16:20:22.585Z,12.48
2022-10-03T16:23:01.064Z,14.88
2022-10-03T16:25:41.706Z,16.40
2022-10-03T16:28:26.307Z,24.77
2022-10-03T16:31:08.354Z,20.67
2022-10-03T16:33:42.335Z,15.65
2022-10-03T16:36:20.283Z,11.80
2022-10-03T16:39:03.148Z,11.93
2022-10-03T16:41:42.115Z,9.40
2022-10-03T16:44:35.987Z,9.55
2022-10-03T16:47:06.607Z,8.75
2022-10-03T16:51:47.359Z,8.33
2022-10-03T16:54:20.374Z,10.23
2022-10-03T16:56:57.886Z,10.27
2022-10-03T16:59:30.987Z,9.50
2022-10-03T17:02:22.353Z,9.73
2022-10-03T17:05:04.508Z,8.13
2022-10-03T17:07:45.527Z,5.90
2022-10-03T17:10:33.317Z,7.13
2022-10-03T17:13:07.871Z,13.38
2022-10-03T17:15:47.575Z,9.57
2022-10-03T17:18:25.311Z,10.38
2022-10-03T17:21:29.838Z,9.32
2022-10-03T17:24:11.926Z,14.63
2022-10-03T17:26:48.129Z,11.05
2022-10-03T17:29:43.518Z,10.73
2022-10-03T17:32:27.816Z,7.78
2022-10-03T17:35:16.600Z,5.83
2022-10-03T17:38:37.251Z,10.00
2022-10-03T17:41:20.089Z,8.23
2022-10-03T17:44:21.183Z,10.98
2022-10-03T17:47:14.176Z,11.38
2022-10-03T17:50:03.460Z,11.85
2022-10-03T17:52:34.384Z,9.80
2022-10-03T17:55:08.472Z,10.60
2022-10-03T17:57:46.807Z,9.63
2022-10-03T18:00:26.248Z,7.75
2022-10-03T18:03:14.028Z,9.40
2022-10-03T18:05:54.236Z,7.82
2022-10-03T18:08:39.314Z,8.50
2022-10-03T18:11:11.139Z,7.73
2022-10-03T18:13:53.862Z,10.77
2022-10-03T18:16:29.506Z,8.07
2022-10-03T18:19:30.252Z,9.97
2022-10-03T18:22:03.539Z,10.98
2022-10-03T18:24:42.443Z,11.25
2022-10-03T18:27:28.110Z,7.50
2022-10-03T18:30:02.120Z,10.98
2022-10-03T18:32:33.612Z,22.38
2022-10-03T18:35:16.473Z,12.85
2022-10-03T18:37:45.754Z,9.73
2022-10-03T18:40:48.743Z,12.23
2022-10-03T18:43:35.348Z,12.13
2022-10-03T18:46:15.531Z,11.00
2022-10-03T18:49:24.002Z,11.48
2022-10-03T18:51:53.081Z,15.13
2022-10-03T18:54:47.634Z,9.65
2022-10-03T18:57:27.124Z,10.63
2022-10-03T19:00:10.346Z,8.27
2022-10-03T19:03:16.791Z,7.97
2022-10-03T19:06:04.964Z,7.95
2022-10-03T19:08:43.787Z,9.43
2022-10-03T19:11:40.201Z,9.00
2022-10-03T19:14:14.766Z,10.20
2022-10-03T19:16:54.384Z,9.10
2022-10-03T19:19:47.365Z,9.05
2022-10-03T19:22:20.922Z,11.32
2022-10-03T19:24:58.762Z,12.27
2022-10-03T19:27:50.574Z,9.40
2022-10-03T19:30:23.468Z,9.57
2022-10-03T19:33:10.596Z,15.13
2022-10-03T19:35:48.633Z,8.00
2022-10-03T19:38:24.637Z,10.43
2022-10-03T19:41:15.961Z,9.75
2022-10-03T19:43:47.452Z,7.80
2022-10-03T19:46:23.531Z,8.48
2022-10-03T19:48:56.330Z,6.60
2022-10-03T19:51:28.138Z,8.32
2022-10-03T19:53:58.973Z,9.27
2022-10-03T19:56:34.440Z,5.78
2022-10-03T19:59:15.332Z,7.43
2022-10-03T20:01:50.682Z,9.07
2022-10-03T20:04:36.820Z,12.50
2022-10-03T20:07:16.336Z,8.15
2022-10-03T20:10:05.069Z,10.43
2022-10-03T20:12:40.394Z,9.70
2022-10-03T20:15:25.834Z,9.13
2022-10-03T20:18:03.707Z,7.50
2022-10-03T20:20:34.212Z,6.25
2022-10-03T20:23:11.532Z,7.43
2022-10-03T20:25:53.543Z,8.33
2022-10-03T20:28:33.135Z,9.57
2022-10-03T20:31:02.906Z,10.48
2022-10-03T20:33:35.173Z,10.00
2022-10-03T20:36:31.232Z,10.32
2022-10-03T20:39:27.127Z,7.97
2022-10-03T20:42:04.177Z,9.48
2022-10-03T20:45:00.045Z,9.40
2022-10-03T20:47:43.120Z,8.17
2022-10-03T20:50:36.867Z,10.85
2022-10-03T20:53:24.274Z,11.05
2022-10-03T20:55:55.774Z,14.88
2022-10-03T20:58:33.857Z,11.40
2022-10-03T21:01:10.658Z,10.85
2022-10-03T21:04:03.081Z,12.55
2022-10-03T21:06:38.277Z,14.05
2022-10-03T21:09:08.874Z,15.95
2022-10-03T21:11:41.607Z,13.35
2022-10-03T21:14:26.955Z,10.95
2022-10-03T21:16:57.610Z,12.75
2022-10-03T21:19:32.941Z,10.30
2022-10-03T21:22:06.653Z,11.57
2022-10-03T21:25:02.659Z,17.57
2022-10-03T21:27:35.157Z,13.13
2022-10-03T21:30:18.987Z,9.82
2022-10-03T21:32:58.082Z,13.60
2022-10-03T21:35:31.808Z,11.27
2022-10-03T21:38:09.753Z,9.55
2022-10-03T21:41:15.802Z,12.10
2022-10-03T21:43:50.891Z,11.32
2022-10-03T21:47:05.383Z,14.25
2022-10-03T21:49:47.847Z,11.80
2022-10-03T21:52:23.705Z,11.48
2022-10-03T21:55:02.824Z,13.20
2022-10-03T21:57:41.094Z,12.10
2022-10-03T22:00:19.543Z,10.98
2022-10-03T22:03:13.049Z,12.80
2022-10-03T22:05:52.865Z,9.13
2022-10-03T22:08:33.525Z,9.50
2022-10-03T22:11:21.557Z,15.07
2022-10-03T22:14:34.930Z,13.00
2022-10-03T22:17:53.308Z,13.13
2022-10-03T22:20:24.993Z,13.80
2022-10-03T22:23:22.149Z,13.68
2022-10-03T22:26:28.215Z,15.88
2022-10-03T22:29:18.380Z,17.17
2022-10-03T22:32:10.150Z,11.68
2022-10-03T22:35:14.303Z,11.50
2022-10-03T22:37:44.146Z,11.07
2022-10-03T22:40:14.429Z,12.43
2022-10-03T22:42:50.959Z,11.80
2022-10-03T22:45:22.165Z,9.80
2022-10-03T22:47:57.646Z,13.75
2022-10-03T22:50:34.752Z,9.55
2022-10-03T22:53:05.173Z,12.38
2022-10-03T22:55:35.039Z,10.32
2022-10-03T22:58:06.851Z,11.88
2022-10-03T23:00:37.036Z,9.98
2022-10-03T23:03:23.931Z,13.25
2022-10-03T23:06:16.939Z,11.35
2022-10-03T23:08:58.012Z,8.82
2022-10-03T23:11:31.525Z,9.18
2022-10-03T23:14:19.340Z,15.40
2022-10-03T23:16:48.827Z,14.52
2022-10-03T23:19:41.262Z,10.50
2022-10-03T23:22:18.323Z,9.23
2022-10-03T23:25:02.857Z,13.57
2022-10-03T23:27:40.575Z,8.37
2022-10-03T23:30:18.801Z,13.50
2022-10-03T23:32:51.222Z,8.13
2022-10-03T23:35:40.581Z,13.17
2022-10-03T23:38:34.491Z,12.32
2022-10-03T23:41:30.788Z,10.75
2022-10-03T23:44:00.926Z,12.20
2022-10-03T23:46:32.640Z,14.77
2022-10-03T23:49:04.292Z,8.18
2022-10-03T23:51:38.000Z,10.05
2022-10-03T23:54:12.398Z,9.75
2022-10-03T23:56:48.518Z,13.32
2022-10-03T23:59:18.089Z,8.45
